Time;durP1;ratioP1;P1;durP2;ratioP2;P2;SDS_P1;SDS_P2;PMS_P1;PMS_P2;Temp;Humidity;BMP_temperature;BMP_pressure;BME280_temperature;BME280_humidity;BME280_pressure;Samples;Min_cycle;Max_cycle;Signal;HPM_P1;HPM_P2
2022/06/19 00:07:14;;;;;;;2.27;1.37;;;17.40;99.90;;;;;;6264234;23;20175;-94
2022/06/19 00:09:49;;;;;;;1.53;1.23;;;17.20;99.90;;;;;;6239643;23;20234;-92
2022/06/19 00:12:21;;;;;;;2.63;1.30;;;17.30;99.90;;;;;;6256121;23;20538;-93
2022/06/19 00:14:56;;;;;;;2.07;1.43;;;17.20;99.90;;;;;;6255845;23;20174;-92
2022/06/19 00:17:29;;;;;;;1.80;1.33;;;17.20;99.90;;;;;;6251828;23;20635;-92
2022/06/19 00:25:26;;;;;;;3.70;1.50;;;16.60;99.90;;;;;;6186176;22;20210;-90
2022/06/19 00:28:11;;;;;;;1.40;1.20;;;16.60;99.90;;;;;;6239213;23;20171;-93
2022/06/19 00:30:44;;;;;;;2.23;1.43;;;16.60;99.90;;;;;;6263682;23;20653;-92
2022/06/19 00:33:15;;;;;;;3.57;1.33;;;16.30;99.90;;;;;;6256513;23;20191;-93
2022/06/19 00:36:20;;;;;;;2.73;1.20;;;16.20;99.90;;;;;;6258000;23;20195;-92
2022/06/19 00:41:47;;;;;;;2.23;1.53;;;16.20;99.90;;;;;;6264376;23;20517;-93
2022/06/19 00:44:21;;;;;;;3.40;1.30;;;16.30;99.90;;;;;;6259297;23;20967;-92
2022/06/19 00:47:06;;;;;;;2.37;1.57;;;16.30;99.90;;;;;;6264532;23;20182;-91
2022/06/19 00:49:42;;;;;;;2.50;1.50;;;16.40;99.90;;;;;;6238420;22;20164;-96
2022/06/19 00:52:22;;;;;;;2.70;1.43;;;16.60;99.90;;;;;;6162697;22;20241;-95
2022/06/19 01:19:30;;;;;;;3.50;1.27;;;17.10;99.90;;;;;;6108785;22;20166;-96
2022/06/19 01:57:07;;;;;;;1.60;1.20;;;16.30;99.90;;;;;;5990949;23;21688;31
2022/06/19 01:59:42;;;;;;;2.60;1.37;;;16.30;99.90;;;;;;6113559;22;20207;-96
2022/06/19 02:02:19;;;;;;;2.80;1.50;;;16.20;99.90;;;;;;6258243;23;20183;-96
2022/06/19 02:04:51;;;;;;;3.50;1.60;;;16.10;99.90;;;;;;6259357;23;20210;-94
2022/06/19 02:10:12;;;;;;;1.97;1.50;;;16.20;99.90;;;;;;6249857;23;20178;-95
2022/06/19 02:13:02;;;;;;;1.53;1.40;;;16.00;99.90;;;;;;6265265;23;20208;-95
2022/06/19 02:15:53;;;;;;;2.60;1.60;;;16.00;99.90;;;;;;6250500;23;20202;-96
2022/06/19 02:18:42;;;;;;;3.17;2.00;;;16.00;99.90;;;;;;6251495;23;20559;-96
2022/06/19 02:21:18;;;;;;;4.33;1.90;;;16.00;99.90;;;;;;6263595;23;20183;-95
2022/06/19 02:23:54;;;;;;;3.70;1.40;;;15.80;99.90;;;;;;6260715;23;20185;-95
2022/06/19 02:26:40;;;;;;;5.17;1.60;;;16.00;99.90;;;;;;6261010;23;20176;-96
2022/06/19 02:29:16;;;;;;;2.07;1.60;;;16.10;99.90;;;;;;6263492;23;20179;-96
2022/06/19 02:31:51;;;;;;;3.23;1.60;;;16.10;99.90;;;;;;6260774;23;20723;-94
2022/06/19 02:34:28;;;;;;;2.83;1.80;;;16.20;99.90;;;;;;6250459;23;20171;-96
2022/06/19 02:37:05;;;;;;;3.47;1.80;;;16.20;99.90;;;;;;6263299;23;20238;-94
2022/06/19 02:39:46;;;;;;;2.80;1.70;;;16.20;99.90;;;;;;6255748;23;20176;-95
2022/06/19 02:42:38;;;;;;;3.17;1.70;;;16.20;99.90;;;;;;6251281;23;20168;-94
2022/06/19 02:45:17;;;;;;;2.27;1.63;;;16.10;99.90;;;;;;6224309;23;20180;-94
2022/06/19 02:47:49;;;;;;;2.67;1.67;;;16.00;99.90;;;;;;6232932;23;20274;-94
2022/06/19 02:50:22;;;;;;;4.10;1.80;;;16.00;99.90;;;;;;6249877;23;20167;-95
2022/06/19 02:55:48;;;;;;;4.37;1.83;;;16.00;99.90;;;;;;6266580;23;20164;-93
2022/06/19 02:58:24;;;;;;;4.73;2.50;;;15.80;99.90;;;;;;6270595;22;20187;-95
2022/06/19 03:00:57;;;;;;;2.00;1.70;;;15.80;99.90;;;;;;6260078;23;20187;-95
2022/06/19 03:03:35;;;;;;;3.10;1.90;;;15.80;99.90;;;;;;6258775;23;20182;-96
2022/06/19 03:06:08;;;;;;;3.03;1.80;;;15.90;99.90;;;;;;6251177;23;20229;-96
2022/06/19 03:08:41;;;;;;;3.27;2.00;;;15.90;99.90;;;;;;6252180;23;20172;-95
2022/06/19 03:11:13;;;;;;;2.37;1.50;;;15.90;99.90;;;;;;6251262;23;20168;-96
2022/06/19 03:13:46;;;;;;;3.67;1.77;;;16.00;99.90;;;;;;6252396;23;20175;-96
2022/06/19 03:16:21;;;;;;;2.70;1.80;;;16.00;99.90;;;;;;6207198;23;20176;-96
2022/06/19 03:18:54;;;;;;;2.67;1.90;;;15.90;99.90;;;;;;6250556;23;20167;-96
2022/06/19 03:21:28;;;;;;;4.30;1.77;;;15.90;99.90;;;;;;6229642;23;20179;-96
2022/06/19 03:23:59;;;;;;;4.43;1.90;;;15.90;99.90;;;;;;6234436;23;20185;-96
2022/06/19 03:34:45;;;;;;;3.30;2.07;;;15.80;99.90;;;;;;6053374;23;20184;-96
2022/06/19 03:37:18;;;;;;;2.53;1.70;;;15.70;99.90;;;;;;6050329;23;20187;-95
2022/06/19 03:39:51;;;;;;;2.10;1.63;;;15.70;99.90;;;;;;6048146;23;20164;-95
2022/06/19 03:42:28;;;;;;;3.47;1.90;;;15.50;99.90;;;;;;6047680;23;20176;-95
2022/06/19 03:44:59;;;;;;;4.37;2.17;;;15.40;99.90;;;;;;6050014;23;20176;-95
2022/06/19 03:47:35;;;;;;;3.63;2.00;;;15.40;99.90;;;;;;6053651;23;20603;-95
2022/06/19 03:50:09;;;;;;;3.17;1.80;;;15.30;99.90;;;;;;6051410;23;20187;-95
2022/06/19 03:52:41;;;;;;;2.63;2.00;;;15.30;99.90;;;;;;6056440;23;20236;-96
2022/06/19 03:55:17;;;;;;;3.23;2.20;;;15.20;99.90;;;;;;6033195;23;20177;-96
2022/06/19 03:57:48;;;;;;;2.53;1.80;;;15.20;99.90;;;;;;6054810;23;20180;-94
2022/06/19 04:03:20;;;;;;;4.20;2.03;;;15.20;99.90;;;;;;6038117;23;20172;-93
2022/06/19 04:05:54;;;;;;;3.33;2.20;;;15.10;99.90;;;;;;6057404;23;20164;-94
2022/06/19 04:08:26;;;;;;;4.03;2.10;;;15.10;99.90;;;;;;6059419;23;20188;-94
2022/06/19 04:10:57;;;;;;;3.70;2.23;;;15.00;99.90;;;;;;6051924;23;20173;-94
2022/06/19 04:13:29;;;;;;;8.50;2.20;;;15.00;99.90;;;;;;6056640;23;20208;-95
2022/06/19 04:16:01;;;;;;;5.23;2.40;;;14.90;99.90;;;;;;6049617;23;20215;-94
2022/06/19 04:18:35;;;;;;;3.67;2.20;;;14.90;99.90;;;;;;6051307;23;20232;-93
2022/06/19 04:21:08;;;;;;;4.50;2.27;;;14.70;99.90;;;;;;6053030;23;20180;-95
2022/06/19 04:23:49;;;;;;;4.10;2.33;;;14.70;99.90;;;;;;6035965;23;20169;-96
2022/06/19 04:26:23;;;;;;;5.20;2.30;;;14.60;99.90;;;;;;6058195;23;20180;-93
2022/06/19 04:28:54;;;;;;;3.33;2.10;;;14.60;99.90;;;;;;6058339;23;20212;-94
2022/06/19 04:31:28;;;;;;;4.20;2.23;;;14.60;99.90;;;;;;6052027;23;20188;-94
2022/06/19 04:34:04;;;;;;;5.27;2.80;;;14.40;99.90;;;;;;6054302;23;20228;-94
2022/06/19 04:36:35;;;;;;;4.10;2.57;;;14.50;99.90;;;;;;6031882;23;20216;-94
2022/06/19 04:39:07;;;;;;;2.97;2.30;;;14.30;99.90;;;;;;6033483;23;20187;-94
2022/06/19 04:41:44;;;;;;;4.17;2.63;;;14.30;99.90;;;;;;6059763;23;20180;-94
2022/06/19 04:44:21;;;;;;;6.73;2.83;;;14.30;99.90;;;;;;6061464;23;20215;-93
2022/06/19 04:46:54;;;;;;;5.27;3.03;;;14.30;99.90;;;;;;6061532;23;20161;-94
2022/06/19 04:49:30;;;;;;;3.93;3.00;;;14.20;99.90;;;;;;6061608;23;20181;-95
2022/06/19 04:52:02;;;;;;;6.47;3.10;;;14.20;99.90;;;;;;6034618;23;20208;-93
2022/06/19 04:54:34;;;;;;;4.23;2.70;;;14.10;99.90;;;;;;6060405;23;20171;-94
2022/06/19 04:57:05;;;;;;;2.73;2.37;;;14.10;99.90;;;;;;6059811;23;20252;-95
2022/06/19 04:59:38;;;;;;;2.93;2.63;;;14.10;99.90;;;;;;6056671;23;20220;-94
2022/06/19 05:02:13;;;;;;;3.47;2.33;;;13.90;99.90;;;;;;6057526;23;20196;-94
2022/06/19 05:04:51;;;;;;;2.90;2.37;;;13.80;99.90;;;;;;6053318;23;20172;-94
2022/06/19 05:07:23;;;;;;;3.77;2.53;;;13.60;99.90;;;;;;6050695;23;20184;-95
2022/06/19 05:09:55;;;;;;;4.97;3.03;;;13.60;99.90;;;;;;6049309;23;20467;-94
2022/06/19 05:12:26;;;;;;;3.50;2.20;;;13.60;99.90;;;;;;6043663;23;20208;-94
2022/06/19 05:14:58;;;;;;;3.77;2.30;;;13.60;99.90;;;;;;6045652;23;20219;-93
2022/06/19 05:17:30;;;;;;;3.63;2.20;;;13.50;99.90;;;;;;6047826;23;20217;-94
2022/06/19 05:20:05;;;;;;;3.40;2.47;;;13.50;99.90;;;;;;6047389;23;20181;-95
2022/06/19 05:22:37;;;;;;;3.50;2.47;;;13.40;99.90;;;;;;6047632;23;20238;-94
2022/06/19 05:25:11;;;;;;;3.67;2.10;;;13.30;99.90;;;;;;6028506;23;20172;-95
2022/06/19 05:30:31;;;;;;;2.57;2.13;;;13.30;99.90;;;;;;6047957;23;20184;-96
2022/06/19 05:49:13;;;;;;;2.37;2.00;;;13.10;99.90;;;;;;6088480;22;20237;-96
2022/06/19 05:51:44;;;;;;;3.30;2.20;;;13.00;99.90;;;;;;6109368;23;20237;-94
2022/06/19 05:54:16;;;;;;;4.37;1.70;;;13.00;99.90;;;;;;6081925;23;20203;-94
2022/06/19 05:56:49;;;;;;;5.13;1.63;;;13.00;99.90;;;;;;6103702;23;20183;-95
2022/06/19 05:59:20;;;;;;;2.83;2.00;;;13.00;99.90;;;;;;6105517;23;20190;-95
2022/06/19 06:01:52;;;;;;;2.37;1.87;;;13.00;99.90;;;;;;6114110;22;20166;-96
2022/06/19 06:04:26;;;;;;;3.90;1.63;;;12.90;99.90;;;;;;6113976;23;20187;-94
2022/06/19 06:06:58;;;;;;;2.87;1.70;;;12.90;99.90;;;;;;6090542;23;20172;-96
2022/06/19 06:09:30;;;;;;;2.83;1.90;;;12.90;99.90;;;;;;6116921;22;20167;-96
2022/06/19 06:12:02;;;;;;;2.20;2.00;;;12.90;99.90;;;;;;6115700;22;20167;-91
2022/06/19 06:14:39;;;;;;;5.07;2.27;;;12.80;99.90;;;;;;6112537;23;20195;-95
2022/06/19 06:17:14;;;;;;;3.10;2.00;;;12.80;99.90;;;;;;6087022;23;20189;-93
2022/06/19 06:19:53;;;;;;;3.67;1.97;;;12.90;99.90;;;;;;6110739;23;20183;-95
2022/06/19 06:22:24;;;;;;;3.17;1.90;;;12.80;99.90;;;;;;6128877;22;20248;-96
2022/06/19 06:24:57;;;;;;;2.43;2.07;;;12.90;99.90;;;;;;6257117;23;20172;-95
2022/06/19 06:27:30;;;;;;;3.17;2.10;;;12.90;99.90;;;;;;6258349;23;20199;-96
2022/06/19 06:30:07;;;;;;;2.60;2.07;;;12.80;99.90;;;;;;6255697;23;20210;-96
2022/06/19 06:32:42;;;;;;;3.57;2.00;;;12.80;99.90;;;;;;6253341;23;20202;-96
2022/06/19 06:38:31;;;;;;;3.20;2.27;;;12.70;99.90;;;;;;6261634;23;20210;-95
2022/06/19 06:41:17;;;;;;;3.17;2.00;;;12.80;99.90;;;;;;6253364;23;20183;-95
2022/06/19 06:43:49;;;;;;;2.03;1.80;;;12.60;99.90;;;;;;6261453;23;20187;-94
2022/06/19 06:46:23;;;;;;;2.67;1.90;;;12.60;99.90;;;;;;6262778;23;20184;-95
2022/06/19 06:48:59;;;;;;;3.23;2.03;;;12.60;99.90;;;;;;6268927;22;20183;-93
2022/06/19 06:51:34;;;;;;;4.40;1.70;;;12.60;99.90;;;;;;6269030;22;20197;-95
2022/06/19 06:54:06;;;;;;;2.33;1.70;;;12.50;99.90;;;;;;6269747;22;20235;-93
2022/06/19 06:56:46;;;;;;;2.83;1.83;;;12.40;99.90;;;;;;6188154;22;20215;-96
2022/06/19 07:02:02;;;;;;;2.40;1.80;;;12.40;99.90;;;;;;6238373;23;20210;-96
2022/06/19 07:04:38;;;;;;;2.37;2.07;;;12.30;99.90;;;;;;6239464;23;20192;-96
2022/06/19 07:07:25;;;;;;;3.00;2.00;;;12.40;99.90;;;;;;6236417;23;20196;-95
2022/06/19 07:09:56;;;;;;;1.93;1.70;;;12.30;99.90;;;;;;6233725;23;20164;-96
2022/06/19 07:12:30;;;;;;;3.67;2.07;;;12.30;99.90;;;;;;6240146;23;20230;-96
2022/06/19 07:18:01;;;;;;;2.30;1.80;;;12.40;99.90;;;;;;6231535;23;20216;-96
2022/06/19 07:20:32;;;;;;;4.53;1.73;;;12.40;99.90;;;;;;6238529;23;20176;-96
2022/06/19 07:23:22;;;;;;;3.37;1.93;;;12.40;99.90;;;;;;6239567;23;20160;-96
2022/06/19 07:26:11;;;;;;;4.67;2.00;;;12.30;99.90;;;;;;6239880;23;20165;-96
2022/06/19 07:31:28;;;;;;;3.00;1.97;;;12.40;99.90;;;;;;6131517;23;20175;-96
2022/06/19 07:39:23;;;;;;;2.77;1.97;;;12.40;99.90;;;;;;6020196;23;20186;-94
2022/06/19 08:03:29;;;;;;;2.23;1.60;;;12.30;99.90;;;;;;6056596;23;20203;-96
2022/06/19 08:06:06;;;;;;;3.90;1.77;;;12.30;99.90;;;;;;6027348;23;20219;-96
2022/06/19 08:08:38;;;;;;;4.10;1.90;;;12.20;99.90;;;;;;6050601;23;20658;-96
2022/06/19 08:11:18;;;;;;;2.20;1.47;;;12.30;99.90;;;;;;6046157;23;20181;-96
2022/06/19 08:13:58;;;;;;;1.47;1.33;;;12.20;99.90;;;;;;6047435;23;20215;-96
2022/06/19 08:16:31;;;;;;;2.47;1.40;;;12.30;99.90;;;;;;6048729;23;20203;-96
2022/06/19 08:19:06;;;;;;;1.60;1.50;;;12.40;99.90;;;;;;6048579;23;20252;-96
2022/06/19 08:21:45;;;;;;;2.07;1.27;;;12.40;99.90;;;;;;6050895;23;20176;-96
2022/06/19 08:24:17;;;;;;;3.07;1.93;;;12.40;99.90;;;;;;6041930;23;20239;-96
2022/06/19 08:26:50;;;;;;;1.83;1.37;;;12.30;99.90;;;;;;6041781;23;20181;-96
2022/06/19 08:29:23;;;;;;;3.77;1.40;;;12.30;99.90;;;;;;6043539;23;20216;-96
2022/06/19 08:32:00;;;;;;;2.70;1.70;;;12.30;99.90;;;;;;6042241;23;20184;-96
2022/06/19 08:34:36;;;;;;;2.07;1.40;;;12.40;99.90;;;;;;6048114;23;20235;-95
2022/06/19 17:14:40;;;;;;;1.50;1.40;;;13.70;99.90;;;;;;6092163;23;20268;-92
2022/06/19 17:17:25;;;;;;;1.53;1.43;;;13.70;99.90;;;;;;6101685;23;20210;-92
2022/06/19 17:20:01;;;;;;;1.73;1.50;;;13.80;99.90;;;;;;6108661;23;20479;-88
2022/06/19 17:22:37;;;;;;;2.03;1.73;;;13.70;99.90;;;;;;6100553;23;20183;-87
2022/06/19 17:25:17;;;;;;;2.87;1.80;;;13.70;99.90;;;;;;6103763;23;20226;-87
2022/06/19 19:02:15;;;;;;;1.40;1.10;;;15.90;99.90;;;;;;6109025;22;20306;-96
